Time;durP1;ratioP1;P1;durP2;ratioP2;P2;SDS_P1;SDS_P2;PMS_P1;PMS_P2;Temp;Humidity;BMP_temperature;BMP_pressure;BME280_temperature;BME280_humidity;BME280_pressure;Samples;Min_cycle;Max_cycle;Signal;HPM_P1;HPM_P2
2022/01/25 08:01:01;;;;;;;13.67;7.60;;;-4.40;99.90;;;;;;5153797;27;20275;-78
2022/01/25 08:03:26;;;;;;;12.33;7.97;;;-4.40;99.90;;;;;;5152496;27;20414;-77
2022/01/25 08:05:52;;;;;;;15.80;7.67;;;;;;;;;;5133910;27;20198;-77
2022/01/25 08:08:18;;;;;;;22.60;9.80;;;-4.40;99.90;;;;;;5152552;27;20285;-77
2022/01/25 08:10:44;;;;;;;17.90;9.23;;;-4.30;99.90;;;;;;5152381;27;20487;-77
2022/01/25 08:13:09;;;;;;;14.57;8.90;;;-4.40;99.90;;;;;;5153785;27;20166;-78
2022/01/25 08:15:35;;;;;;;15.13;8.87;;;-4.20;99.90;;;;;;5156768;27;20174;-78
2022/01/25 08:18:01;;;;;;;14.20;8.77;;;-4.10;99.90;;;;;;5157676;27;20202;-78
2022/01/25 08:20:26;;;;;;;14.40;8.47;;;-3.80;99.90;;;;;;5155669;27;20173;-78
2022/01/25 08:22:52;;;;;;;16.37;9.20;;;-3.10;99.90;;;;;;5152040;27;20190;-79
2022/01/25 08:25:19;;;;;;;13.97;9.10;;;-2.50;99.90;;;;;;5152859;27;20170;-78
2022/01/25 08:27:46;;;;;;;13.87;8.50;;;-1.80;99.90;;;;;;5153372;27;20269;-77
2022/01/25 08:30:12;;;;;;;16.53;8.50;;;-1.40;99.90;;;;;;5151736;27;20500;-78
2022/01/25 08:32:38;;;;;;;15.00;8.63;;;-0.90;99.90;;;;;;5161456;27;20407;-80
2022/01/25 08:35:04;;;;;;;13.57;7.80;;;-0.20;99.90;;;;;;5161964;27;20415;-79
2022/01/25 08:37:30;;;;;;;11.33;7.40;;;0.10;99.90;;;;;;5163898;27;20755;-79
2022/01/25 08:39:56;;;;;;;11.87;7.70;;;0.30;99.90;;;;;;5156607;27;20219;-79
2022/01/25 08:42:21;;;;;;;11.43;7.83;;;0.80;99.90;;;;;;5157874;27;20174;-80
2022/01/25 08:44:47;;;;;;;11.23;7.43;;;0.90;99.90;;;;;;5158023;27;20175;-79
2022/01/25 08:47:13;;;;;;;10.27;6.73;;;0.90;99.90;;;;;;5158789;27;20693;-79
2022/01/25 08:49:39;;;;;;;10.40;7.77;;;1.10;99.90;;;;;;5156949;27;20307;-80
2022/01/25 08:52:06;;;;;;;11.83;7.80;;;1.00;99.90;;;;;;5157259;27;20180;-80
2022/01/25 08:54:33;;;;;;;8.93;6.70;;;1.40;99.90;;;;;;5157987;27;20208;-80
2022/01/25 08:56:59;;;;;;;8.37;6.57;;;1.70;99.90;;;;;;5158604;27;20201;-80
2022/01/25 08:59:25;;;;;;;15.10;6.60;;;1.90;99.90;;;;;;5159599;27;20217;-80
2022/01/25 09:01:51;;;;;;;7.90;6.17;;;1.80;99.90;;;;;;5158795;27;20184;-80
2022/01/25 09:04:16;;;;;;;7.33;5.90;;;1.80;99.90;;;;;;5160420;27;20176;-80
2022/01/25 09:06:42;;;;;;;8.23;6.47;;;1.80;99.90;;;;;;5159172;27;20198;-80
2022/01/25 09:09:10;;;;;;;9.07;6.70;;;2.00;99.90;;;;;;5158744;27;20182;-80
2022/01/25 09:11:37;;;;;;;8.27;6.40;;;2.20;99.90;;;;;;5150155;27;20213;-80
2022/01/25 09:14:03;;;;;;;14.40;10.93;;;2.30;99.90;;;;;;5144422;27;20179;-80
2022/01/25 09:16:28;;;;;;;24.80;14.20;;;2.30;99.90;;;;;;5144466;27;20777;-81
2022/01/25 09:18:54;;;;;;;31.13;17.53;;;2.70;99.90;;;;;;5144689;27;20191;-80
2022/01/25 09:21:20;;;;;;;105.60;64.23;;;2.70;99.90;;;;;;5143583;27;20167;-81
2022/01/25 09:23:45;;;;;;;28.53;19.63;;;3.10;99.90;;;;;;5145400;27;20175;-81
2022/01/25 09:26:11;;;;;;;9.43;7.37;;;3.40;99.90;;;;;;5142761;27;20185;-81
2022/01/25 09:28:37;;;;;;;14.17;12.57;;;3.70;99.90;;;;;;5144014;27;20163;-81
2022/01/25 09:31:03;;;;;;;11.57;9.30;;;3.70;99.90;;;;;;5143636;27;20174;-81
2022/01/25 09:33:29;;;;;;;12.70;10.47;;;3.70;99.90;;;;;;5143369;27;20186;-80
2022/01/25 09:35:55;;;;;;;11.07;7.73;;;3.90;99.90;;;;;;5142948;27;20229;-80
2022/01/25 09:38:22;;;;;;;8.10;6.63;;;4.20;99.90;;;;;;5140286;27;20200;-80
2022/01/25 09:40:48;;;;;;;13.70;8.83;;;4.20;99.90;;;;;;5139415;27;20195;-80
2022/01/25 09:43:14;;;;;;;11.30;8.67;;;4.40;99.90;;;;;;5138945;27;20178;-80
2022/01/25 09:45:41;;;;;;;11.23;7.87;;;4.60;99.90;;;;;;5138708;27;20179;-80
2022/01/25 09:48:08;;;;;;;9.07;7.67;;;4.60;99.90;;;;;;5138508;27;20191;-80
2022/01/25 09:50:37;;;;;;;8.70;7.20;;;4.60;99.90;;;;;;5138216;27;20180;-81
2022/01/25 09:53:04;;;;;;;10.00;7.30;;;4.30;99.90;;;;;;5137791;27;20242;-81
2022/01/25 09:55:33;;;;;;;9.83;6.97;;;4.40;99.90;;;;;;5138944;27;20230;-81
2022/01/25 09:57:59;;;;;;;9.87;7.33;;;4.60;99.90;;;;;;5138336;27;20247;-80
2022/01/25 10:00:29;;;;;;;12.33;8.90;;;4.50;99.90;;;;;;5137396;27;20211;-80
2022/01/25 10:05:43;;;;;;;9.97;7.60;;;4.80;99.90;;;;;;5138966;27;20230;-80
2022/01/25 10:08:17;;;;;;;8.90;7.53;;;4.90;99.90;;;;;;5139342;27;20180;-81
2022/01/25 10:10:46;;;;;;;8.27;6.00;;;5.20;99.90;;;;;;5137753;27;20190;-80
2022/01/25 10:13:25;;;;;;;7.10;6.07;;;5.40;99.90;;;;;;5137205;27;20187;-80
2022/01/25 10:16:08;;;;;;;6.77;5.80;;;5.60;99.90;;;;;;5137686;27;20163;-81
2022/01/25 10:18:54;;;;;;;6.37;4.93;;;5.70;99.90;;;;;;5137037;27;20175;-80
2022/01/25 10:21:25;;;;;;;5.33;4.77;;;5.70;99.90;;;;;;5136851;27;20596;-81
2022/01/25 10:24:04;;;;;;;9.20;6.53;;;5.90;99.90;;;;;;5136139;27;20177;-80
2022/01/25 10:26:35;;;;;;;7.57;5.43;;;6.30;99.90;;;;;;5137392;27;20191;-81
2022/01/25 10:29:03;;;;;;;7.10;5.27;;;6.70;99.90;;;;;;5138773;27;20309;-81
2022/01/25 10:31:43;;;;;;;8.70;6.00;;;6.80;99.90;;;;;;5138053;27;20188;-80
2022/01/25 10:34:10;;;;;;;6.63;5.73;;;6.60;99.90;;;;;;5136730;27;20178;-80
2022/01/25 10:36:46;;;;;;;11.47;5.47;;;6.30;99.90;;;;;;5137463;27;20208;-80
2022/01/25 10:39:29;;;;;;;8.67;5.63;;;6.30;99.90;;;;;;5141888;27;20200;-80
2022/01/25 10:42:05;;;;;;;8.67;5.20;;;6.80;99.90;;;;;;5137253;27;20230;-80
2022/01/25 10:44:51;;;;;;;8.67;4.97;;;6.80;99.90;;;;;;5136848;27;20177;-80
2022/01/25 10:47:21;;;;;;;9.37;5.07;;;7.00;99.90;;;;;;5136398;27;20195;-80
2022/01/25 10:49:49;;;;;;;8.63;4.70;;;7.00;99.90;;;;;;5138023;27;20167;-81
2022/01/25 10:52:26;;;;;;;5.73;4.77;;;7.20;99.90;;;;;;5138020;27;20194;-80
2022/01/25 10:54:52;;;;;;;5.80;4.20;;;7.80;99.90;;;;;;5136790;27;20230;-81
2022/01/25 10:57:20;;;;;;;7.77;4.63;;;7.70;99.90;;;;;;5137103;27;20194;-80
2022/01/25 10:59:58;;;;;;;8.00;5.00;;;7.80;99.90;;;;;;5137757;27;20203;-81
2022/01/25 11:02:23;;;;;;;8.93;4.80;;;7.90;99.90;;;;;;5136354;27;20254;-81
2022/01/25 11:04:49;;;;;;;7.20;4.47;;;8.20;99.90;;;;;;5137430;27;20207;-81
2022/01/25 11:07:15;;;;;;;5.30;3.77;;;8.70;99.90;;;;;;5137579;27;20211;-80
2022/01/25 11:09:46;;;;;;;5.57;4.10;;;8.60;99.90;;;;;;5137269;27;20636;-80
2022/01/25 11:12:15;;;;;;;5.90;4.37;;;8.80;99.90;;;;;;5136076;27;20172;-80
2022/01/25 11:14:57;;;;;;;6.70;4.53;;;8.90;99.90;;;;;;5137665;27;20179;-81
2022/01/25 11:17:33;;;;;;;5.80;4.90;;;8.90;99.90;;;;;;5136393;27;20197;-81
2022/01/25 11:20:00;;;;;;;5.70;4.67;;;9.00;99.90;;;;;;5137803;27;20186;-81
2022/01/25 11:22:27;;;;;;;6.63;4.73;;;9.30;99.90;;;;;;5138613;27;20512;-81
2022/01/25 11:25:00;;;;;;;7.67;4.70;;;9.70;99.90;;;;;;5140091;27;20172;-81
2022/01/25 11:27:29;;;;;;;8.03;5.30;;;9.90;99.90;;;;;;5137877;27;20701;-80
2022/01/25 11:30:00;;;;;;;10.90;4.37;;;9.90;99.90;;;;;;5136516;27;20177;-80
2022/01/25 11:32:34;;;;;;;7.30;4.77;;;9.80;99.90;;;;;;5136507;27;20171;-81
2022/01/25 11:35:03;;;;;;;6.43;4.30;;;10.30;99.90;;;;;;5136315;27;20645;-80
2022/01/25 11:37:39;;;;;;;4.90;4.30;;;10.70;97.50;;;;;;5137789;27;20288;-80
2022/01/25 11:40:34;;;;;;;4.97;4.30;;;10.80;96.20;;;;;;5137978;27;20254;-80
2022/01/25 11:43:20;;;;;;;6.43;4.40;;;10.90;95.90;;;;;;5133713;27;20202;-80
2022/01/25 11:45:50;;;;;;;4.13;3.17;;;11.30;95.60;;;;;;5137515;27;20192;-80
2022/01/25 11:48:24;;;;;;;4.03;3.57;;;11.60;92.90;;;;;;5135672;27;20324;-80
2022/01/25 11:50:50;;;;;;;6.53;3.93;;;11.50;92.10;;;;;;5136362;27;20223;-80
2022/01/25 11:53:19;;;;;;;9.63;6.23;;;11.70;90.80;;;;;;5136555;27;20178;-80
2022/01/25 11:55:48;;;;;;;8.70;4.63;;;11.60;92.40;;;;;;5135364;27;20530;-80
2022/01/25 11:58:29;;;;;;;5.50;3.10;;;12.00;90.70;;;;;;5135845;28;20194;-80
2022/01/25 12:00:57;;;;;;;3.53;3.23;;;12.50;86.10;;;;;;5134472;28;20257;-81
2022/01/25 12:03:31;;;;;;;6.53;3.83;;;12.70;85.90;;;;;;5136318;28;20528;-81
2022/01/25 12:06:26;;;;;;;4.73;3.43;;;13.00;87.50;;;;;;5134848;28;20228;-80
2022/01/25 12:11:29;;;;;;;4.10;3.00;;;13.50;79.30;;;;;;5136588;28;20167;-80
2022/01/25 12:14:18;;;;;;;3.57;3.20;;;13.50;79.30;;;;;;5135694;28;20171;-80
2022/01/25 12:17:02;;;;;;;2.93;2.37;;;13.30;83.50;;;;;;5136354;28;20191;-80
2022/01/25 12:19:50;;;;;;;5.43;2.60;;;13.40;74.40;;;;;;5137522;28;20202;-80
2022/01/25 12:22:40;;;;;;;4.00;2.27;;;13.60;77.00;;;;;;5138460;28;20198;-80
2022/01/25 12:25:16;;;;;;;2.70;2.20;;;13.50;72.60;;;;;;5137140;28;20651;-80
2022/01/25 12:27:58;;;;;;;4.73;2.80;;;13.70;70.20;;;;;;5136829;28;20754;-80
2022/01/25 12:30:27;;;;;;;5.43;2.43;;;13.50;70.90;;;;;;5137676;28;20169;-81
2022/01/25 12:33:02;;;;;;;3.07;2.40;;;13.40;70.50;;;;;;5137065;28;20213;-80
2022/01/25 12:35:39;;;;;;;8.07;2.60;;;13.70;69.20;;;;;;5138482;28;20167;-80
2022/01/25 12:38:07;;;;;;;2.83;2.37;;;14.00;67.50;;;;;;5138377;28;20194;-80
2022/01/25 12:40:37;;;;;;;4.13;2.50;;;13.80;66.80;;;;;;5139973;28;20578;-80
2022/01/25 12:43:10;;;;;;;5.43;2.80;;;14.00;66.20;;;;;;5136055;27;20175;-80
2022/01/25 12:45:43;;;;;;;2.63;2.20;;;14.10;67.60;;;;;;5148481;27;20166;-81
2022/01/25 12:48:17;;;;;;;2.80;1.87;;;14.00;62.20;;;;;;5140386;27;20666;-79
2022/01/25 12:50:45;;;;;;;1.60;1.50;;;13.90;64.70;;;;;;5138801;27;20175;-78
2022/01/25 12:53:18;;;;;;;1.53;1.43;;;13.80;61.00;;;;;;5139992;27;20175;-78
2022/01/25 12:55:48;;;;;;;2.90;1.80;;;13.80;60.90;;;;;;5139196;27;20632;-81
2022/01/25 12:58:14;;;;;;;1.87;1.67;;;14.00;59.90;;;;;;5139213;27;20195;-81
2022/01/25 13:00:44;;;;;;;2.80;1.63;;;13.50;58.60;;;;;;5139160;27;20221;-81
2022/01/25 13:03:11;;;;;;;2.47;2.17;;;13.40;61.20;;;;;;5139575;27;20177;-80
2022/01/25 13:05:44;;;;;;;1.97;1.83;;;13.40;61.00;;;;;;5140769;27;20168;-80
2022/01/25 13:08:26;;;;;;;2.80;1.53;;;13.00;60.00;;;;;;5140744;27;20194;-81
2022/01/25 13:10:56;;;;;;;2.27;1.70;;;11.90;61.70;;;;;;5139167;27;20259;-80
2022/01/25 13:13:43;;;;;;;4.00;2.00;;;10.60;61.50;;;;;;5139591;27;20171;-80
2022/01/25 13:16:09;;;;;;;2.63;1.50;;;10.10;63.20;;;;;;5139861;27;20177;-81
2022/01/25 13:18:39;;;;;;;1.83;1.30;;;10.00;63.10;;;;;;5140172;27;20175;-80
2022/01/25 13:21:09;;;;;;;2.63;1.83;;;9.80;66.70;;;;;;5140038;27;20202;-80
2022/01/25 13:23:48;;;;;;;3.03;1.63;;;9.70;66.50;;;;;;5139938;27;20178;-81
2022/01/25 13:26:16;;;;;;;2.83;1.63;;;9.40;66.70;;;;;;5140340;27;20157;-80
2022/01/25 13:31:17;;;;;;;2.40;1.80;;;9.20;68.20;;;;;;5140235;27;20174;-80
2022/01/25 13:33:43;;;;;;;1.90;1.70;;;9.10;68.20;;;;;;5138540;27;20229;-80
2022/01/25 13:36:16;;;;;;;2.83;1.60;;;9.00;68.80;;;;;;5138312;27;20566;-80
2022/01/25 13:38:43;;;;;;;5.90;3.40;;;9.00;69.00;;;;;;5140321;27;20158;-80
2022/01/25 13:41:21;;;;;;;2.83;2.20;;;8.90;69.40;;;;;;5139988;27;20178;-80
2022/01/25 13:46:23;;;;;;;2.40;1.70;;;9.00;70.50;;;;;;5140332;27;20189;-80
2022/01/25 13:48:50;;;;;;;2.17;1.83;;;8.80;70.80;;;;;;5139961;27;20174;-80
2022/01/25 13:51:21;;;;;;;3.17;1.63;;;8.70;71.00;;;;;;5139019;27;20546;-80
2022/01/25 13:53:59;;;;;;;2.67;1.70;;;8.60;69.50;;;;;;5139262;27;20168;-80
2022/01/25 13:56:31;;;;;;;2.20;2.00;;;8.60;70.40;;;;;;5138805;27;20186;-80
2022/01/25 13:58:57;;;;;;;1.73;1.60;;;8.60;71.10;;;;;;5137845;27;20279;-81
2022/01/25 14:01:26;;;;;;;2.47;1.50;;;8.60;70.30;;;;;;5139980;27;20235;-81
2022/01/25 14:04:25;;;;;;;2.80;1.80;;;8.60;68.80;;;;;;5140467;27;20204;-80
2022/01/25 14:06:53;;;;;;;4.03;2.77;;;8.60;68.90;;;;;;5104910;27;20224;-81
2022/01/25 14:09:27;;;;;;;7.63;4.30;;;8.50;69.00;;;;;;5139744;27;20175;-81
2022/01/25 14:21:39;;;;;;;6.33;3.83;;;8.50;69.10;;;;;;5138887;27;20183;-79
2022/01/25 14:25:48;;;;;;;2.33;1.80;;;8.20;73.00;;;;;;5141293;27;20163;-79
2022/01/25 14:28:19;;;;;;;3.43;1.90;;;8.10;70.70;;;;;;5137192;27;20188;-79
2022/01/25 14:30:47;;;;;;;2.13;1.93;;;8.00;70.90;;;;;;5136887;27;20168;-79
2022/01/25 14:33:15;;;;;;;4.77;2.00;;;8.00;72.70;;;;;;5138427;27;20179;-79
2022/01/25 14:35:56;;;;;;;2.80;1.93;;;7.80;72.30;;;;;;5137153;27;20197;-79
2022/01/25 14:38:24;;;;;;;3.57;1.70;;;7.80;72.20;;;;;;5136229;27;20190;-79
2022/01/25 14:41:09;;;;;;;2.60;2.00;;;7.80;70.90;;;;;;5138206;27;20207;-79
2022/01/25 14:43:38;;;;;;;2.23;1.80;;;7.80;72.30;;;;;;5138173;27;20236;-79
2022/01/25 14:46:14;;;;;;;2.00;1.80;;;7.70;71.70;;;;;;5136701;27;20647;-79
2022/01/25 14:48:43;;;;;;;3.03;2.00;;;7.60;73.40;;;;;;5140617;27;20176;-79
2022/01/25 14:51:11;;;;;;;3.53;2.30;;;7.50;73.00;;;;;;5142736;27;20202;-79
2022/01/25 14:53:41;;;;;;;3.63;2.47;;;7.40;73.00;;;;;;5142799;27;20554;-82
2022/01/25 14:56:07;;;;;;;5.20;2.70;;;7.40;71.50;;;;;;5136831;27;20705;-81
2022/01/25 15:01:19;;;;;;;3.77;2.23;;;7.30;73.50;;;;;;5139238;27;20201;-80
2022/01/25 15:03:45;;;;;;;2.20;1.80;;;7.10;76.40;;;;;;5139335;27;20222;-80
2022/01/25 15:06:16;;;;;;;1.97;1.73;;;7.00;73.00;;;;;;5136919;27;20175;-79
2022/01/25 15:08:53;;;;;;;6.13;2.80;;;7.00;73.50;;;;;;5141714;27;20612;-79
2022/01/25 15:11:29;;;;;;;4.57;2.80;;;6.90;76.40;;;;;;5151064;27;20251;-78
2022/01/25 15:13:59;;;;;;;4.10;2.80;;;6.70;77.90;;;;;;5146971;27;20172;-79
2022/01/25 15:16:25;;;;;;;6.97;4.10;;;6.60;79.10;;;;;;5136217;27;20222;-79
2022/01/25 15:18:50;;;;;;;7.07;4.10;;;6.30;80.30;;;;;;5137348;27;20262;-79
2022/01/25 15:21:16;;;;;;;6.63;4.03;;;6.10;80.60;;;;;;5137067;27;20172;-79
2022/01/25 15:23:47;;;;;;;13.57;5.40;;;6.00;80.40;;;;;;5135956;27;20181;-80
2022/01/25 15:26:16;;;;;;;8.60;5.13;;;5.90;81.80;;;;;;5135665;27;20200;-79
2022/01/25 15:28:44;;;;;;;11.03;5.20;;;5.80;82.90;;;;;;5135710;27;20180;-79
2022/01/25 15:31:13;;;;;;;6.93;4.77;;;5.60;84.00;;;;;;5137077;27;20171;-79
2022/01/25 15:33:39;;;;;;;5.87;4.43;;;5.50;86.80;;;;;;5136176;27;20197;-79
2022/01/25 15:36:09;;;;;;;6.60;4.60;;;5.40;87.10;;;;;;5137292;27;20179;-79
2022/01/25 15:38:38;;;;;;;5.67;4.30;;;5.30;88.50;;;;;;5135321;27;20179;-79
2022/01/25 15:41:10;;;;;;;6.27;4.33;;;5.20;89.70;;;;;;5136653;27;20194;-79
2022/01/25 15:43:48;;;;;;;8.30;4.37;;;5.10;90.30;;;;;;5135858;27;20169;-79
2022/01/25 15:46:27;;;;;;;7.60;3.83;;;5.00;91.10;;;;;;5136984;27;20172;-79
2022/01/25 15:48:55;;;;;;;4.77;3.43;;;4.80;91.00;;;;;;5136824;27;20158;-79
2022/01/25 15:51:21;;;;;;;8.73;5.23;;;4.80;92.10;;;;;;5135609;27;20199;-79
2022/01/25 15:53:47;;;;;;;14.30;6.70;;;4.60;92.00;;;;;;5136165;27;20179;-79
2022/01/25 15:56:15;;;;;;;20.67;9.67;;;4.50;92.50;;;;;;5135678;27;20178;-79
2022/01/25 15:58:41;;;;;;;21.50;9.90;;;4.40;92.80;;;;;;5136331;27;20202;-79
2022/01/25 16:01:10;;;;;;;20.43;9.57;;;4.30;93.70;;;;;;5137048;28;20252;-79
2022/01/25 16:03:36;;;;;;;11.93;5.37;;;4.20;94.50;;;;;;5135484;28;20448;-79
2022/01/25 16:06:03;;;;;;;8.10;5.27;;;4.20;94.40;;;;;;5135241;27;20484;-79
2022/01/25 16:08:28;;;;;;;9.63;5.70;;;4.00;94.70;;;;;;5136966;28;20167;-79
2022/01/25 16:10:54;;;;;;;6.10;4.20;;;3.90;95.90;;;;;;5137139;28;20175;-80
2022/01/25 16:13:20;;;;;;;10.10;5.27;;;3.80;97.10;;;;;;5140781;28;20179;-79
2022/01/25 16:15:46;;;;;;;11.33;7.07;;;3.70;97.70;;;;;;5145779;28;20192;-79
2022/01/25 16:18:11;;;;;;;9.50;7.23;;;3.40;98.90;;;;;;5142577;28;20368;-79
2022/01/25 16:20:39;;;;;;;11.13;6.43;;;;;;;;;;5135286;27;20195;-79
2022/01/25 16:23:06;;;;;;;14.17;7.20;;;3.40;99.90;;;;;;5139582;27;20243;-78
2022/01/25 16:25:32;;;;;;;10.37;5.63;;;3.20;99.90;;;;;;5142177;27;20196;-79
2022/01/25 16:27:58;;;;;;;12.77;7.50;;;3.30;99.90;;;;;;5141103;27;20519;-79
2022/01/25 16:30:24;;;;;;;13.43;7.30;;;3.20;99.90;;;;;;5142394;27;20443;-79
2022/01/25 16:32:51;;;;;;;10.93;6.57;;;;;;;;;;5141498;27;20615;-79
2022/01/25 16:35:19;;;;;;;11.80;7.23;;;2.90;99.90;;;;;;5139420;27;20170;-78
2022/01/25 16:37:45;;;;;;;9.90;6.77;;;2.90;99.90;;;;;;5139520;27;20198;-78
2022/01/25 16:40:14;;;;;;;8.73;6.27;;;2.80;99.90;;;;;;5137880;27;20455;-78
2022/01/25 16:42:40;;;;;;;9.17;6.10;;;;;;;;;;5139670;27;20424;-78
2022/01/25 16:45:09;;;;;;;10.57;6.60;;;2.40;99.90;;;;;;5138688;27;20442;-78
2022/01/25 16:47:36;;;;;;;12.83;6.73;;;2.50;99.90;;;;;;5139765;27;20499;-78
2022/01/25 16:50:10;;;;;;;11.43;6.30;;;2.30;99.90;;;;;;5139211;27;20423;-78
2022/01/25 16:52:37;;;;;;;11.93;6.60;;;2.20;99.90;;;;;;5140669;27;20389;-78
2022/01/25 16:55:04;;;;;;;9.67;6.13;;;2.00;99.90;;;;;;5141655;27;20473;-78
2022/01/25 16:57:30;;;;;;;9.60;6.23;;;;;;;;;;5143371;27;20440;-78
2022/01/25 16:59:56;;;;;;;9.73;5.90;;;2.00;99.90;;;;;;5137690;27;20460;-78
2022/01/25 17:02:22;;;;;;;8.83;5.90;;;1.70;99.90;;;;;;5138555;27;20452;-78
2022/01/25 17:04:47;;;;;;;13.17;6.50;;;1.80;99.90;;;;;;5136749;27;20182;-78
2022/01/25 17:07:13;;;;;;;10.40;5.53;;;;;;;;;;5142703;27;20428;-78
2022/01/25 17:09:39;;;;;;;8.93;5.60;;;1.60;99.90;;;;;;5149014;27;20178;-78
2022/01/25 17:12:07;;;;;;;9.70;5.53;;;2.50;99.90;;;;;;5150290;27;20187;-78
2022/01/25 17:14:34;;;;;;;9.13;5.97;;;1.40;99.90;;;;;;5143681;27;20171;-78
2022/01/25 17:17:01;;;;;;;11.00;5.40;;;1.40;99.90;;;;;;5137357;27;20791;-78
2022/01/25 17:19:27;;;;;;;8.77;6.43;;;1.40;99.90;;;;;;5136856;27;20585;-78
2022/01/25 17:21:57;;;;;;;9.67;5.60;;;1.40;99.90;;;;;;5139720;27;20404;-78
2022/01/25 17:24:23;;;;;;;10.40;6.27;;;1.10;99.90;;;;;;5138383;27;20412;-78
2022/01/25 17:26:49;;;;;;;12.00;6.47;;;1.10;99.90;;;;;;5142177;27;20451;-78
2022/01/25 17:29:15;;;;;;;9.43;5.00;;;1.10;99.90;;;;;;5141015;27;20408;-77
2022/01/25 17:31:42;;;;;;;12.83;6.27;;;1.00;99.90;;;;;;5139721;27;20940;-77
2022/01/25 17:34:09;;;;;;;9.80;5.33;;;1.00;99.90;;;;;;5138549;27;20412;-77
2022/01/25 17:36:35;;;;;;;13.43;5.80;;;0.90;99.90;;;;;;5139748;27;20432;-78
2022/01/25 17:39:00;;;;;;;9.47;6.23;;;0.80;99.90;;;;;;5139897;27;20476;-77
2022/01/25 17:41:26;;;;;;;12.00;6.77;;;1.00;99.90;;;;;;5138161;27;20242;-78
2022/01/25 17:43:51;;;;;;;13.73;8.33;;;0.70;99.90;;;;;;5139823;27;20163;-77
2022/01/25 17:46:17;;;;;;;15.50;9.03;;;0.60;99.90;;;;;;5139025;27;20194;-77
2022/01/25 17:48:43;;;;;;;14.67;8.10;;;0.60;99.90;;;;;;5140142;27;20178;-78
2022/01/25 17:51:09;;;;;;;14.87;8.83;;;0.60;99.90;;;;;;5139049;27;20535;-78
2022/01/25 17:53:35;;;;;;;17.70;8.57;;;0.50;99.90;;;;;;5142608;27;20409;-79
2022/01/25 17:56:01;;;;;;;22.27;11.03;;;0.40;99.90;;;;;;5141430;27;20257;-79
2022/01/25 17:58:26;;;;;;;18.93;10.53;;;0.50;99.90;;;;;;5138799;27;20436;-77
2022/01/25 18:00:52;;;;;;;25.33;14.50;;;0.40;99.90;;;;;;5137597;27;20569;-78
2022/01/25 18:03:19;;;;;;;32.37;16.40;;;0.30;99.90;;;;;;5138289;27;20167;-77
2022/01/25 18:05:45;;;;;;;27.63;16.93;;;0.30;99.90;;;;;;5138967;27;20174;-78
2022/01/25 18:08:12;;;;;;;31.60;16.57;;;0.30;99.90;;;;;;5138441;27;20538;-77
2022/01/25 18:10:37;;;;;;;37.03;17.60;;;0.30;99.90;;;;;;5138494;27;20441;-78
2022/01/25 18:13:03;;;;;;;28.47;14.87;;;0.30;99.90;;;;;;5139373;27;20412;-79
2022/01/25 18:15:30;;;;;;;35.07;17.47;;;0.20;99.90;;;;;;5139792;27;20175;-77
2022/01/25 18:17:55;;;;;;;34.93;16.30;;;0.20;99.90;;;;;;5142524;27;20496;-80
2022/01/25 18:20:23;;;;;;;50.03;22.80;;;0.20;99.90;;;;;;5137951;27;20862;-78
2022/01/25 18:25:40;;;;;;;48.23;23.73;;;0.10;99.90;;;;;;5139316;27;20404;-78
2022/01/25 18:28:10;;;;;;;47.03;22.83;;;0.10;99.90;;;;;;5141339;27;20255;-79
2022/01/25 18:30:36;;;;;;;44.63;21.73;;;0.00;99.90;;;;;;5143220;27;20940;-79
2022/01/25 18:33:03;;;;;;;44.90;21.40;;;0.00;99.90;;;;;;5142087;27;20413;-79
2022/01/25 18:35:29;;;;;;;42.40;21.00;;;0.00;99.90;;;;;;5143638;27;20178;-79
2022/01/25 18:37:56;;;;;;;34.33;18.77;;;-0.10;99.90;;;;;;5140335;27;20432;-78
2022/01/25 18:40:21;;;;;;;40.53;20.70;;;1.10;99.90;;;;;;5144451;27;20195;-81
2022/01/25 18:42:47;;;;;;;39.03;18.57;;;-0.10;99.90;;;;;;5141998;27;20421;-79
2022/01/25 18:45:13;;;;;;;39.47;18.97;;;-0.10;99.90;;;;;;5139657;27;20224;-78
2022/01/25 18:47:40;;;;;;;34.73;18.80;;;-0.10;99.90;;;;;;5139745;27;20240;-78
2022/01/25 18:50:07;;;;;;;42.90;20.37;;;-0.20;99.90;;;;;;5135413;27;20198;-78
2022/01/25 18:52:33;;;;;;;40.07;19.43;;;-0.20;99.90;;;;;;5136981;27;20437;-78
2022/01/25 18:55:01;;;;;;;36.70;18.23;;;-0.30;99.90;;;;;;5136555;27;20213;-78
2022/01/25 18:57:26;;;;;;;33.53;18.10;;;-0.30;99.90;;;;;;5135230;27;20288;-78
2022/01/25 18:59:52;;;;;;;38.80;19.17;;;-0.30;99.90;;;;;;5134908;27;20912;-78
2022/01/25 19:02:32;;;;;;;33.73;18.00;;;-0.30;99.90;;;;;;5139835;27;20215;-78
2022/01/25 19:04:57;;;;;;;28.50;14.37;;;-0.30;99.90;;;;;;5139539;27;20599;-78
2022/01/25 19:07:23;;;;;;;31.07;15.90;;;-0.40;99.90;;;;;;5140400;27;20226;-78
2022/01/25 19:09:49;;;;;;;28.57;14.43;;;-0.40;99.90;;;;;;5141113;27;20228;-78
2022/01/25 19:12:15;;;;;;;27.37;13.63;;;-0.40;99.90;;;;;;5139816;27;20206;-78
2022/01/25 19:14:41;;;;;;;28.40;12.83;;;;;;;;;;5134333;27;20175;-78
2022/01/25 19:17:06;;;;;;;24.37;12.07;;;-0.50;99.90;;;;;;5135247;27;20198;-78
2022/01/25 19:19:32;;;;;;;18.40;11.10;;;-0.50;99.90;;;;;;5134583;27;20202;-78
2022/01/25 19:21:58;;;;;;;25.27;12.73;;;-0.60;99.90;;;;;;5133869;27;20624;-78
2022/01/25 19:24:24;;;;;;;32.47;12.83;;;;;;;;;;5133893;27;20182;-77
2022/01/25 19:26:50;;;;;;;21.20;10.83;;;-0.50;99.90;;;;;;5134122;27;20222;-78
2022/01/25 19:29:16;;;;;;;18.00;10.37;;;-0.60;99.90;;;;;;5134815;27;20182;-77
2022/01/25 19:31:42;;;;;;;21.70;11.53;;;;;;;;;;5135713;27;20225;-77
2022/01/25 19:34:08;;;;;;;19.90;11.43;;;;;;;;;;5134511;27;20408;-78
2022/01/25 19:36:34;;;;;;;26.47;12.70;;;-0.60;99.90;;;;;;5134176;27;20523;-77
2022/01/25 19:39:00;;;;;;;29.73;14.93;;;;;;;;;;5135839;27;20202;-77
2022/01/25 19:41:28;;;;;;;38.47;19.57;;;-0.80;99.90;;;;;;5134512;27;20171;-78
2022/01/25 19:43:54;;;;;;;32.00;15.33;;;;;;;;;;5135515;27;20171;-77
2022/01/25 19:46:23;;;;;;;46.03;21.03;;;-0.80;99.90;;;;;;5134162;27;20421;-79
2022/01/25 19:48:52;;;;;;;55.90;23.07;;;-0.80;99.90;;;;;;5134773;27;20905;-78
2022/01/25 19:51:19;;;;;;;42.43;19.70;;;-0.80;99.90;;;;;;5136461;27;20179;-78
2022/01/25 19:53:46;;;;;;;39.30;18.23;;;;;;;;;;5136531;27;20170;-77
2022/01/25 19:56:12;;;;;;;45.83;22.73;;;-1.30;99.90;;;;;;5136152;27;20416;-79
2022/01/25 19:58:39;;;;;;;42.00;20.73;;;-0.90;99.90;;;;;;5134890;27;20178;-78
2022/01/25 20:01:10;;;;;;;39.10;19.87;;;-0.90;99.90;;;;;;5134016;28;20678;-77
2022/01/25 20:03:36;;;;;;;31.47;16.80;;;-0.80;99.90;;;;;;5133768;28;20258;-78
2022/01/25 20:06:03;;;;;;;40.87;19.27;;;-0.90;99.90;;;;;;5134331;27;20579;-78
2022/01/25 20:08:32;;;;;;;48.20;20.20;;;-0.90;99.90;;;;;;5134382;27;20175;-77
2022/01/25 20:11:00;;;;;;;40.23;17.83;;;;;;;;;;5133673;28;20259;-77
2022/01/25 20:13:26;;;;;;;31.83;14.70;;;;;;;;;;5133891;28;20440;-77
2022/01/25 20:16:00;;;;;;;32.53;14.33;;;-1.10;99.90;;;;;;5134766;27;20404;-77
2022/01/25 20:18:31;;;;;;;40.00;16.23;;;-0.90;99.90;;;;;;5135810;27;20642;-77
2022/01/25 20:26:28;;;;;;;25.87;13.10;;;-1.10;99.90;;;;;;5136936;27;20262;-77
2022/01/25 20:29:08;;;;;;;22.90;12.30;;;;;;;;;;5136568;27;20391;-77
2022/01/25 20:31:35;;;;;;;18.80;9.90;;;;;;;;;;5132607;28;20408;-77
2022/01/25 20:34:05;;;;;;;23.33;10.87;;;-1.20;99.90;;;;;;5132529;28;20465;-77
2022/01/25 20:36:31;;;;;;;27.60;11.10;;;;;;;;;;5132652;28;20444;-77
2022/01/25 20:38:57;;;;;;;21.00;9.63;;;-1.10;99.90;;;;;;5134182;27;20269;-77
2022/01/25 20:41:23;;;;;;;18.17;9.50;;;;;;;;;;5134366;28;21025;-77
2022/01/25 20:43:51;;;;;;;14.30;8.87;;;;;;;;;;5134241;27;20214;-77
2022/01/25 20:46:18;;;;;;;20.13;9.83;;;;;;;;;;5133855;27;20405;-78
2022/01/25 20:48:43;;;;;;;18.47;9.80;;;-0.90;99.90;;;;;;5133950;27;20480;-78
2022/01/25 20:51:10;;;;;;;15.57;9.33;;;;;;;;;;5133916;28;20254;-77
2022/01/25 20:53:36;;;;;;;20.10;9.17;;;-0.80;99.90;;;;;;5134074;27;20174;-77
2022/01/25 20:56:02;;;;;;;16.30;8.67;;;-0.80;99.90;;;;;;5133985;28;20174;-77
2022/01/25 20:58:28;;;;;;;18.00;8.87;;;-0.80;99.90;;;;;;5134090;28;20536;-77
2022/01/25 21:00:54;;;;;;;17.10;9.13;;;-0.70;99.90;;;;;;5134305;28;20456;-77
2022/01/25 21:03:34;;;;;;;17.20;8.43;;;-0.80;99.90;;;;;;5132506;28;20645;-77
2022/01/25 21:08:50;;;;;;;13.53;8.27;;;-0.80;99.90;;;;;;5136761;27;20444;-77
2022/01/25 21:11:16;;;;;;;16.37;8.53;;;;;;;;;;5141946;27;20195;-77
2022/01/25 21:13:42;;;;;;;16.17;8.00;;;;;;;;;;5138436;27;20231;-77
2022/01/25 21:16:09;;;;;;;13.47;8.23;;;-0.70;99.90;;;;;;5137197;27;20171;-77
2022/01/25 21:18:36;;;;;;;13.60;7.93;;;-0.80;99.90;;;;;;5137177;27;20443;-78
2022/01/25 21:21:07;;;;;;;14.47;7.97;;;-0.90;99.90;;;;;;5137227;27;20453;-77
2022/01/25 21:23:33;;;;;;;13.50;7.53;;;;;;;;;;5135929;27;20436;-77
2022/01/25 21:26:00;;;;;;;14.03;7.90;;;;;;;;;;5136959;27;20175;-77
2022/01/25 21:28:26;;;;;;;13.60;7.67;;;;;;;;;;5136909;27;20488;-77
2022/01/25 21:30:53;;;;;;;17.80;8.27;;;-0.80;99.90;;;;;;5136940;27;20262;-77
2022/01/25 21:33:21;;;;;;;30.90;10.80;;;-0.90;99.90;;;;;;5137049;27;20162;-77
2022/01/25 21:35:49;;;;;;;19.70;9.50;;;;;;;;;;5136766;27;20172;-77
2022/01/25 21:38:15;;;;;;;26.93;11.30;;;-0.70;99.90;;;;;;5136761;27;20435;-77
2022/01/25 21:40:41;;;;;;;18.87;10.17;;;;;;;;;;5135355;27;20448;-77